Time;durP1;ratioP1;P1;durP2;ratioP2;P2;SDS_P1;SDS_P2;PMS_P1;PMS_P2;Temp;Humidity;BMP_temperature;BMP_pressure;BME280_temperature;BME280_humidity;BME280_pressure;Samples;Min_cycle;Max_cycle;Signal;HPM_P1;HPM_P2
2020/12/23 00:00:45;;;;;;;13.00;7.70;;;8.60;76.10;;;;;;6188633;23;20009;-81
2020/12/23 00:03:11;;;;;;;10.47;7.37;;;8.50;75.70;;;;;;6189441;23;20008;-81
2020/12/23 00:05:37;;;;;;;9.90;6.87;;;8.40;75.90;;;;;;6189561;23;20084;-81
2020/12/23 00:08:02;;;;;;;13.23;7.47;;;8.30;75.80;;;;;;6189105;23;20015;-82
2020/12/23 00:10:28;;;;;;;11.03;7.37;;;8.30;75.90;;;;;;6215471;23;19997;-82
2020/12/23 00:12:54;;;;;;;11.63;7.13;;;8.30;75.90;;;;;;6189380;23;20084;-81
2020/12/23 00:15:19;;;;;;;9.80;6.67;;;8.30;75.80;;;;;;6189162;23;20000;-81
2020/12/23 00:17:45;;;;;;;8.77;6.37;;;8.30;76.20;;;;;;6187965;23;20019;-82
2020/12/23 00:20:11;;;;;;;8.60;5.93;;;8.30;75.50;;;;;;6214089;23;19997;-82
2020/12/23 00:22:37;;;;;;;8.73;6.67;;;8.20;75.70;;;;;;6188384;23;20127;-81
2020/12/23 00:25:05;;;;;;;16.40;6.67;;;8.10;76.20;;;;;;6215852;23;20274;-82
2020/12/23 00:27:31;;;;;;;10.33;6.37;;;8.10;76.20;;;;;;6187994;23;20020;-82
2020/12/23 00:29:57;;;;;;;9.93;6.13;;;8.10;75.90;;;;;;6188159;23;20020;-82
2020/12/23 00:32:27;;;;;;;7.17;5.70;;;8.10;75.80;;;;;;6215397;23;20012;-82
2020/12/23 00:34:53;;;;;;;8.13;5.73;;;8.10;75.70;;;;;;6190121;23;20012;-82
2020/12/23 00:37:19;;;;;;;6.97;4.47;;;8.10;75.60;;;;;;6189126;23;20004;-82
2020/12/23 00:39:45;;;;;;;8.33;4.80;;;8.00;76.00;;;;;;6189270;23;20035;-82
2020/12/23 00:42:11;;;;;;;7.50;4.70;;;8.10;76.10;;;;;;6189266;23;20004;-82
2020/12/23 00:44:36;;;;;;;9.47;5.23;;;8.10;75.30;;;;;;6189160;23;20003;-82
2020/12/23 00:47:02;;;;;;;11.53;6.20;;;8.10;75.40;;;;;;6188931;23;20011;-83
2020/12/23 00:49:28;;;;;;;12.60;8.23;;;8.10;75.80;;;;;;6215001;23;20013;-83
2020/12/23 00:51:54;;;;;;;7.97;4.73;;;8.10;76.00;;;;;;6214912;23;20043;-82
2020/12/23 00:54:19;;;;;;;9.40;6.70;;;8.20;75.90;;;;;;6188321;23;20000;-82
2020/12/23 00:56:45;;;;;;;11.53;7.43;;;8.10;75.90;;;;;;6187896;23;20012;-82
2020/12/23 00:59:11;;;;;;;8.27;5.97;;;8.10;76.10;;;;;;6187909;23;20338;-83
2020/12/23 01:01:37;;;;;;;10.73;7.77;;;8.10;76.30;;;;;;6187905;23;20010;-82
2020/12/23 01:04:03;;;;;;;10.17;6.70;;;8.10;76.40;;;;;;6188599;23;20091;-82
2020/12/23 01:06:29;;;;;;;11.43;7.43;;;8.20;76.40;;;;;;6187417;23;20820;-82
2020/12/23 01:08:54;;;;;;;10.33;7.60;;;8.30;76.40;;;;;;6186808;23;20012;-82
2020/12/23 01:11:21;;;;;;;8.97;6.20;;;8.30;76.70;;;;;;6215166;23;19996;-82
2020/12/23 01:13:46;;;;;;;8.80;6.13;;;8.20;75.90;;;;;;6189094;23;20028;-82
2020/12/23 01:16:19;;;;;;;8.40;5.20;;;8.20;75.60;;;;;;6216036;23;19996;-82
2020/12/23 01:18:45;;;;;;;7.37;4.23;;;8.10;75.70;;;;;;6188601;23;20343;-82
2020/12/23 01:21:11;;;;;;;5.43;3.77;;;8.00;75.70;;;;;;6215805;23;20020;-82
2020/12/23 01:23:36;;;;;;;6.80;4.87;;;8.10;75.80;;;;;;6187995;23;20036;-82
2020/12/23 01:26:02;;;;;;;6.60;4.03;;;8.00;75.60;;;;;;6186788;23;20004;-82
2020/12/23 01:28:28;;;;;;;6.50;3.37;;;8.10;76.00;;;;;;6214520;23;20013;-82
2020/12/23 01:30:54;;;;;;;5.00;3.40;;;8.20;75.50;;;;;;6189436;23;19997;-82
2020/12/23 01:33:19;;;;;;;9.30;4.43;;;8.20;75.50;;;;;;6188331;23;19997;-82
2020/12/23 01:35:45;;;;;;;6.77;4.57;;;8.20;74.70;;;;;;6188039;23;20074;-82
2020/12/23 01:38:11;;;;;;;6.70;4.80;;;8.10;75.40;;;;;;6188945;23;20020;-82
2020/12/23 01:40:37;;;;;;;9.40;3.93;;;8.00;75.30;;;;;;6189036;23;20017;-82
2020/12/23 01:43:05;;;;;;;7.93;3.87;;;8.00;75.40;;;;;;6215897;23;20001;-82
2020/12/23 01:45:31;;;;;;;6.87;3.37;;;7.90;75.40;;;;;;6188351;23;20396;-82
2020/12/23 01:47:57;;;;;;;6.97;3.27;;;7.90;75.40;;;;;;6188745;23;20019;-82
2020/12/23 01:50:23;;;;;;;7.97;3.40;;;7.90;75.60;;;;;;6188247;23;20363;-82
2020/12/23 01:52:53;;;;;;;7.60;3.60;;;7.90;75.40;;;;;;6187845;23;20335;-82
2020/12/23 01:55:18;;;;;;;6.43;3.70;;;7.90;75.40;;;;;;6186694;23;20012;-82
2020/12/23 01:57:44;;;;;;;7.87;4.80;;;7.80;75.30;;;;;;6188243;23;20013;-82
2020/12/23 02:00:10;;;;;;;14.67;9.23;;;7.80;75.30;;;;;;6188171;23;20005;-82
2020/12/23 02:02:37;;;;;;;11.27;8.00;;;7.70;75.40;;;;;;6186872;23;20009;-82
2020/12/23 02:05:05;;;;;;;5.93;3.90;;;7.70;75.70;;;;;;6188830;23;20082;-82
2020/12/23 02:07:31;;;;;;;6.13;4.13;;;7.70;75.50;;;;;;6187742;23;20400;-82
2020/12/23 02:09:59;;;;;;;7.53;4.77;;;7.70;75.40;;;;;;6189055;23;20000;-82
2020/12/23 02:12:26;;;;;;;6.67;4.00;;;7.60;75.50;;;;;;6188076;23;20387;-82
2020/12/23 02:14:56;;;;;;;6.30;3.70;;;7.60;75.40;;;;;;6188697;23;20405;-82
2020/12/23 02:17:23;;;;;;;4.97;3.07;;;7.60;75.20;;;;;;6188988;23;20447;-82
2020/12/23 02:19:49;;;;;;;7.43;4.30;;;7.50;75.20;;;;;;6216203;23;20005;-82
2020/12/23 02:22:22;;;;;;;5.97;3.37;;;7.50;75.40;;;;;;6216723;23;20000;-82
2020/12/23 02:24:50;;;;;;;6.50;3.27;;;7.50;75.20;;;;;;6189347;23;20005;-82
2020/12/23 02:27:21;;;;;;;4.07;2.50;;;7.40;75.30;;;;;;6188069;23;20343;-82
2020/12/23 02:29:50;;;;;;;3.80;2.10;;;7.50;75.50;;;;;;6215414;23;20005;-82
2020/12/23 02:32:16;;;;;;;3.93;2.70;;;7.50;75.30;;;;;;6188677;23;20031;-82
2020/12/23 02:34:43;;;;;;;3.87;2.17;;;7.50;75.50;;;;;;6188567;23;20088;-82
2020/12/23 02:37:09;;;;;;;8.37;4.47;;;7.60;75.20;;;;;;6188554;23;20746;-82
2020/12/23 02:39:36;;;;;;;6.30;3.30;;;7.60;75.30;;;;;;6214501;23;20088;-81
2020/12/23 02:42:04;;;;;;;5.03;2.93;;;7.60;75.10;;;;;;6214628;23;20008;-81
2020/12/23 02:44:30;;;;;;;6.37;4.30;;;7.60;75.20;;;;;;6215232;23;20012;-81
2020/12/23 02:46:57;;;;;;;3.70;2.00;;;7.60;75.50;;;;;;6214741;23;20005;-82
2020/12/23 02:49:23;;;;;;;3.90;1.80;;;7.60;75.10;;;;;;6188286;23;20059;-82
2020/12/23 02:51:49;;;;;;;2.83;1.93;;;7.60;75.10;;;;;;6189120;23;20000;-82
2020/12/23 02:54:15;;;;;;;5.03;2.80;;;7.60;74.90;;;;;;6188655;23;20013;-82
2020/12/23 02:56:40;;;;;;;2.80;2.07;;;7.50;75.30;;;;;;6188655;23;20384;-82
2020/12/23 02:59:07;;;;;;;4.43;2.50;;;7.50;75.30;;;;;;6214128;23;20051;-82
2020/12/23 03:01:33;;;;;;;5.93;4.10;;;7.50;75.20;;;;;;6189032;23;20179;-81
2020/12/23 03:03:58;;;;;;;6.87;3.20;;;7.50;75.30;;;;;;6188851;23;20466;-81
2020/12/23 03:06:24;;;;;;;4.07;2.10;;;7.50;75.50;;;;;;6216245;23;20004;-81
2020/12/23 03:08:50;;;;;;;3.90;1.80;;;7.40;75.20;;;;;;6187855;23;20009;-81
2020/12/23 03:11:15;;;;;;;3.83;1.87;;;7.40;75.50;;;;;;6189126;23;20009;-82
2020/12/23 03:13:41;;;;;;;2.77;1.80;;;7.30;74.80;;;;;;6187250;23;20078;-82
2020/12/23 03:16:07;;;;;;;4.70;1.53;;;7.30;75.10;;;;;;6187998;23;20831;-82
2020/12/23 03:18:32;;;;;;;7.30;1.87;;;7.30;75.30;;;;;;6187345;23;20376;-82
2020/12/23 03:20:58;;;;;;;2.93;1.60;;;7.40;75.70;;;;;;6188062;23;20008;-82
2020/12/23 03:23:24;;;;;;;3.23;2.07;;;7.50;74.60;;;;;;6187616;23;20019;-82
2020/12/23 03:25:49;;;;;;;7.27;4.00;;;7.40;74.90;;;;;;6188741;23;20004;-82
2020/12/23 03:28:15;;;;;;;5.30;3.27;;;7.30;75.00;;;;;;6187230;23;20332;-82
2020/12/23 03:30:41;;;;;;;4.57;3.17;;;7.30;74.90;;;;;;6187553;23;20001;-82
2020/12/23 03:33:06;;;;;;;4.30;2.23;;;7.20;75.00;;;;;;6187153;23;20032;-82
2020/12/23 03:35:32;;;;;;;3.77;2.57;;;7.20;75.20;;;;;;6188444;23;20479;-82
2020/12/23 03:37:58;;;;;;;5.77;3.93;;;7.20;75.40;;;;;;6189227;23;20012;-82
2020/12/23 03:40:23;;;;;;;5.57;3.40;;;7.20;75.70;;;;;;6189145;23;20011;-82
2020/12/23 03:42:49;;;;;;;4.00;3.00;;;7.30;75.60;;;;;;6188488;23;20088;-82
2020/12/23 03:45:15;;;;;;;4.20;2.30;;;7.30;75.50;;;;;;6188857;23;20008;-82
2020/12/23 03:47:40;;;;;;;2.50;1.87;;;7.30;75.40;;;;;;6188050;23;20000;-82
2020/12/23 03:50:06;;;;;;;6.03;2.20;;;7.30;75.50;;;;;;6215618;23;20055;-82
2020/12/23 03:52:32;;;;;;;4.33;2.33;;;7.30;75.30;;;;;;6188549;23;20008;-81
2020/12/23 03:54:57;;;;;;;6.37;2.40;;;7.30;75.20;;;;;;6189474;23;20008;-82
2020/12/23 03:57:23;;;;;;;6.13;2.33;;;7.20;75.10;;;;;;6189204;23;20008;-82
2020/12/23 03:59:49;;;;;;;3.40;2.00;;;7.20;75.10;;;;;;6189356;23;20393;-82
2020/12/23 04:02:14;;;;;;;3.13;1.80;;;7.20;75.10;;;;;;6188933;23;20004;-82
2020/12/23 04:04:40;;;;;;;3.30;2.10;;;7.20;75.20;;;;;;6188165;23;20011;-82
2020/12/23 04:07:06;;;;;;;5.13;2.30;;;7.20;75.30;;;;;;6188195;23;20007;-81
2020/12/23 04:09:31;;;;;;;3.03;2.20;;;7.10;75.00;;;;;;6186419;23;20145;-83
2020/12/23 04:11:57;;;;;;;3.00;2.00;;;7.10;75.60;;;;;;6188386;23;19996;-82
2020/12/23 04:14:24;;;;;;;4.70;3.30;;;7.10;75.40;;;;;;6214684;23;20000;-82
2020/12/23 04:16:49;;;;;;;5.00;3.03;;;7.00;75.30;;;;;;6187685;23;20647;-82
2020/12/23 04:19:15;;;;;;;5.97;3.50;;;7.00;76.10;;;;;;6186404;23;20008;-82
2020/12/23 04:21:41;;;;;;;6.47;3.67;;;7.00;76.10;;;;;;6187276;23;20015;-82
2020/12/23 04:24:06;;;;;;;9.80;2.90;;;7.00;75.60;;;;;;6188397;23;20005;-82
2020/12/23 04:26:32;;;;;;;7.07;2.33;;;7.00;75.70;;;;;;6188668;23;20004;-81
2020/12/23 04:28:58;;;;;;;4.00;2.33;;;7.00;75.80;;;;;;6213480;23;20017;-81
2020/12/23 04:31:23;;;;;;;6.93;2.97;;;7.00;75.80;;;;;;6189143;23;20023;-81
2020/12/23 04:33:49;;;;;;;5.37;3.50;;;7.10;75.70;;;;;;6187780;23;20005;-83
2020/12/23 04:36:15;;;;;;;7.10;3.50;;;7.00;75.50;;;;;;6187238;23;20616;-82
2020/12/23 04:38:40;;;;;;;5.77;3.73;;;6.90;75.70;;;;;;6188235;23;20036;-82
2020/12/23 04:41:07;;;;;;;3.67;2.37;;;6.90;75.70;;;;;;6188866;23;20014;-82
2020/12/23 04:43:32;;;;;;;3.20;2.60;;;6.90;76.10;;;;;;6188496;23;20444;-82
2020/12/23 04:45:58;;;;;;;3.97;2.93;;;6.90;76.20;;;;;;6214307;23;20015;-82
2020/12/23 04:48:25;;;;;;;3.13;2.30;;;6.90;76.20;;;;;;6189252;23;20040;-82
2020/12/23 04:50:55;;;;;;;4.23;2.77;;;6.90;76.10;;;;;;6215283;23;20005;-81
2020/12/23 04:53:20;;;;;;;2.93;1.83;;;6.90;75.90;;;;;;6188896;23;20378;-82
2020/12/23 04:55:47;;;;;;;2.60;1.73;;;6.90;76.00;;;;;;6188679;23;20008;-82
2020/12/23 04:58:13;;;;;;;3.10;1.70;;;6.80;75.50;;;;;;6189579;23;20467;-82
2020/12/23 05:00:39;;;;;;;5.67;2.10;;;6.70;76.30;;;;;;6190285;23;20563;-82
2020/12/23 05:03:04;;;;;;;3.23;2.23;;;6.80;76.20;;;;;;6190654;23;20016;-82
2020/12/23 05:05:30;;;;;;;5.63;2.50;;;6.80;76.20;;;;;;6190884;23;20649;-82
2020/12/23 05:07:56;;;;;;;3.83;2.23;;;6.80;76.30;;;;;;6189197;23;20059;-81
2020/12/23 05:10:23;;;;;;;3.33;1.97;;;6.90;76.40;;;;;;6215431;23;20012;-81
2020/12/23 05:12:49;;;;;;;4.17;2.63;;;6.90;76.30;;;;;;6188671;23;20083;-81
2020/12/23 05:15:16;;;;;;;5.80;2.80;;;6.90;76.10;;;;;;6215925;23;20004;-81
2020/12/23 05:17:45;;;;;;;6.37;4.07;;;6.90;76.10;;;;;;6190088;23;20340;-81
2020/12/23 05:20:11;;;;;;;7.87;5.67;;;6.90;76.10;;;;;;6188944;23;20012;-81
2020/12/23 05:22:37;;;;;;;12.60;9.77;;;7.00;76.30;;;;;;6190842;23;20012;-82
2020/12/23 05:25:04;;;;;;;17.67;10.97;;;7.00;76.40;;;;;;6191927;23;20008;-82
2020/12/23 05:27:33;;;;;;;8.73;6.27;;;7.00;76.20;;;;;;6191783;23;20719;-82
2020/12/23 05:30:02;;;;;;;7.20;4.30;;;7.00;76.30;;;;;;6190843;23;20005;-83
2020/12/23 05:32:28;;;;;;;6.77;3.80;;;7.00;76.30;;;;;;6190934;23;20308;-82
2020/12/23 05:34:59;;;;;;;6.00;3.90;;;7.00;76.20;;;;;;6200362;23;20016;-82
2020/12/23 05:37:26;;;;;;;8.47;4.63;;;7.10;76.20;;;;;;6212285;23;20068;-82
2020/12/23 05:39:52;;;;;;;8.67;4.13;;;7.00;76.20;;;;;;6212811;23;20012;-82
2020/12/23 05:42:19;;;;;;;5.77;3.77;;;7.10;76.30;;;;;;6213551;23;20052;-82
2020/12/23 05:44:54;;;;;;;5.27;3.77;;;7.10;76.20;;;;;;6212589;23;20032;-82
2020/12/23 05:47:27;;;;;;;4.03;3.17;;;7.20;76.10;;;;;;6211804;23;19997;-81
2020/12/23 05:49:54;;;;;;;6.87;3.87;;;7.10;75.80;;;;;;6218937;23;20012;-81
2020/12/23 05:52:21;;;;;;;5.40;3.90;;;7.10;76.20;;;;;;6218884;23;20001;-81
2020/12/23 05:54:54;;;;;;;5.03;3.60;;;7.10;76.10;;;;;;6191324;23;20004;-81
2020/12/23 05:57:20;;;;;;;5.22;3.53;;;7.20;76.20;;;;;;6217041;23;20007;-81
2020/12/23 05:59:46;;;;;;;10.40;5.77;;;7.30;76.20;;;;;;6190681;23;20060;-81
2020/12/23 06:02:14;;;;;;;16.50;8.77;;;7.30;76.10;;;;;;6189466;23;20005;-81
2020/12/23 06:04:42;;;;;;;10.43;7.17;;;7.30;76.10;;;;;;6191098;23;20008;-81
2020/12/23 06:07:08;;;;;;;9.93;5.90;;;7.30;76.00;;;;;;6191092;23;20005;-81
2020/12/23 06:09:47;;;;;;;11.10;6.27;;;7.10;76.00;;;;;;6190146;23;20005;-81
2020/12/23 06:12:21;;;;;;;9.20;5.40;;;7.20;76.40;;;;;;6190632;23;20005;-82
2020/12/23 06:14:58;;;;;;;12.57;5.73;;;7.20;76.50;;;;;;6215913;23;20434;-81
2020/12/23 06:17:26;;;;;;;8.83;5.70;;;7.20;76.50;;;;;;6189467;23;20019;-82
2020/12/23 06:19:55;;;;;;;6.87;5.30;;;7.20;76.20;;;;;;6217026;23;20031;-81
2020/12/23 06:22:24;;;;;;;10.90;6.20;;;7.20;76.30;;;;;;6189685;23;20394;-82
2020/12/23 06:24:50;;;;;;;8.97;6.33;;;7.20;76.20;;;;;;6216259;23;20005;-82
2020/12/23 06:27:15;;;;;;;8.37;5.57;;;7.20;76.10;;;;;;6216020;23;20071;-82
2020/12/23 06:29:47;;;;;;;7.77;6.17;;;7.20;75.90;;;;;;6216381;23;20035;-82
2020/12/23 06:32:21;;;;;;;7.55;5.63;;;7.10;76.00;;;;;;6216522;23;20000;-82
2020/12/23 06:35:03;;;;;;;7.87;5.93;;;7.10;76.40;;;;;;6188720;23;20001;-82
2020/12/23 06:37:30;;;;;;;8.80;7.03;;;7.10;76.30;;;;;;6189790;23;20001;-82
2020/12/23 06:39:56;;;;;;;9.13;6.57;;;7.20;76.30;;;;;;6189364;23;20012;-82
2020/12/23 06:42:25;;;;;;;10.27;6.30;;;7.20;76.40;;;;;;6189251;23;20486;-82
2020/12/23 06:44:51;;;;;;;10.70;6.40;;;7.30;76.40;;;;;;6189439;23;20779;-82
2020/12/23 06:47:18;;;;;;;8.17;5.00;;;7.30;76.40;;;;;;6188590;23;20009;-82
2020/12/23 06:49:47;;;;;;;10.00;5.90;;;7.30;76.20;;;;;;6189701;23;20612;-81
2020/12/23 06:52:22;;;;;;;7.30;5.30;;;7.30;76.20;;;;;;6189070;23;20004;-81
2020/12/23 06:55:02;;;;;;;6.43;5.30;;;7.30;76.30;;;;;;6216366;23;20001;-81
2020/12/23 06:57:37;;;;;;;7.37;5.20;;;7.30;76.30;;;;;;6189601;23;20015;-81
2020/12/23 07:00:20;;;;;;;8.87;6.10;;;7.30;76.40;;;;;;6216393;23;20000;-81
2020/12/23 07:02:51;;;;;;;10.50;7.70;;;7.30;76.40;;;;;;6216091;23;20007;-81
2020/12/23 07:05:22;;;;;;;16.67;11.07;;;7.30;76.70;;;;;;6188676;23;20004;-81
2020/12/23 07:07:55;;;;;;;16.40;9.50;;;7.40;76.50;;;;;;6189116;23;20370;-81
2020/12/23 07:10:29;;;;;;;13.30;8.60;;;7.40;76.60;;;;;;6188270;23;20043;-81
2020/12/23 07:13:04;;;;;;;6.37;5.03;;;7.40;76.40;;;;;;6215784;23;20001;-82
2020/12/23 07:15:37;;;;;;;7.00;4.50;;;7.40;76.60;;;;;;6189132;23;20011;-82
2020/12/23 07:18:15;;;;;;;8.07;5.07;;;7.40;76.60;;;;;;6186674;23;20010;-82
2020/12/23 07:20:49;;;;;;;8.47;5.37;;;7.40;76.50;;;;;;6189704;23;20032;-82
2020/12/23 07:23:17;;;;;;;8.93;5.67;;;7.30;76.40;;;;;;6189301;23;20095;-82
2020/12/23 07:25:51;;;;;;;7.83;5.00;;;7.30;76.50;;;;;;6215440;23;19997;-82
2020/12/23 07:28:26;;;;;;;8.93;6.10;;;7.30;76.40;;;;;;6188267;23;20090;-82
2020/12/23 07:30:52;;;;;;;11.53;7.23;;;7.30;76.30;;;;;;6214658;23;19996;-82
2020/12/23 07:33:22;;;;;;;11.87;7.93;;;7.30;76.10;;;;;;6187730;23;20309;-82
2020/12/23 07:35:54;;;;;;;16.83;8.83;;;7.20;76.40;;;;;;6189079;23;20505;-82
2020/12/23 07:38:21;;;;;;;12.77;7.73;;;7.20;76.60;;;;;;6213864;23;20012;-81
2020/12/23 07:40:48;;;;;;;13.27;6.83;;;7.20;76.60;;;;;;6215515;23;20058;-81
2020/12/23 07:43:15;;;;;;;8.60;5.67;;;7.30;76.40;;;;;;6187535;23;20012;-82
2020/12/23 07:45:41;;;;;;;9.60;6.33;;;7.30;76.40;;;;;;6214923;23;20011;-82
2020/12/23 07:48:12;;;;;;;9.10;6.27;;;7.20;77.10;;;;;;6215186;23;20005;-82
2020/12/23 07:50:40;;;;;;;10.07;6.20;;;7.20;76.50;;;;;;6189155;23;20028;-82
2020/12/23 07:53:13;;;;;;;11.37;7.43;;;7.20;76.50;;;;;;6188684;23;20416;-82
2020/12/23 07:55:44;;;;;;;10.80;7.60;;;7.20;76.40;;;;;;6214976;23;20001;-81
2020/12/23 07:58:11;;;;;;;10.67;7.63;;;7.30;76.40;;;;;;6188889;23;20024;-82
2020/12/23 08:00:38;;;;;;;11.80;6.50;;;7.20;76.30;;;;;;6188464;23;20009;-81
2020/12/23 08:03:08;;;;;;;9.17;6.57;;;7.20;76.40;;;;;;6187696;23;20040;-82
2020/12/23 08:05:34;;;;;;;16.90;7.73;;;7.20;76.50;;;;;;6188335;23;20059;-82
2020/12/23 08:08:00;;;;;;;9.03;7.20;;;7.30;76.70;;;;;;6188057;23;20791;-83
2020/12/23 08:10:26;;;;;;;13.77;6.70;;;7.30;76.60;;;;;;6215343;23;20054;-83
2020/12/23 08:12:59;;;;;;;9.17;6.53;;;7.30;77.00;;;;;;6188474;23;20483;-82
2020/12/23 08:15:26;;;;;;;11.77;6.37;;;7.30;76.60;;;;;;6189891;23;20005;-82
2020/12/23 08:18:01;;;;;;;8.80;6.30;;;7.40;76.60;;;;;;6189811;23;20009;-82
2020/12/23 08:20:27;;;;;;;8.93;5.97;;;7.40;76.50;;;;;;6189935;23;20009;-82
2020/12/23 08:22:53;;;;;;;9.00;6.50;;;7.40;76.40;;;;;;6185130;23;20009;-82
2020/12/23 08:25:21;;;;;;;10.33;6.60;;;7.40;76.50;;;;;;6188556;23;20105;-82
2020/12/23 08:27:49;;;;;;;7.67;5.63;;;7.50;76.60;;;;;;6188708;23;20031;-82
2020/12/23 08:30:20;;;;;;;9.67;6.37;;;7.50;76.40;;;;;;6191588;23;20011;-82
2020/12/23 08:33:05;;;;;;;10.10;6.77;;;7.50;76.40;;;;;;6192647;23;20027;-83
2020/12/23 08:35:58;;;;;;;7.33;5.30;;;7.60;76.40;;;;;;6190987;23;20367;-82
2020/12/23 08:38:26;;;;;;;8.43;5.22;;;7.60;76.50;;;;;;6216016;23;20015;-82
2020/12/23 08:40:54;;;;;;;8.73;5.20;;;7.60;76.30;;;;;;6188583;23;20016;-82
2020/12/23 08:43:23;;;;;;;7.80;4.87;;;7.70;76.40;;;;;;6216377;23;20083;-82
2020/12/23 08:45:50;;;;;;;8.73;6.00;;;7.70;76.40;;;;;;6217413;23;20127;-82
2020/12/23 08:48:20;;;;;;;7.70;4.90;;;7.70;76.30;;;;;;6189263;23;20020;-82
2020/12/23 08:50:59;;;;;;;9.33;4.63;;;7.80;76.20;;;;;;6215568;23;20072;-83
2020/12/23 08:53:36;;;;;;;7.60;4.80;;;7.90;76.20;;;;;;6187344;23;20079;-82
2020/12/23 08:56:21;;;;;;;8.53;4.50;;;7.90;76.00;;;;;;6188504;23;20094;-82
2020/12/23 08:58:51;;;;;;;10.03;5.10;;;8.00;75.80;;;;;;6185856;23;20524;-82
2020/12/23 09:01:24;;;;;;;9.50;5.03;;;8.00;75.60;;;;;;6186869;23;20008;-83
2020/12/23 09:04:07;;;;;;;;;;;7.90;75.80;;;;;;6189031;23;20004;-83
2020/12/23 09:06:34;;;;;;;16.08;5.25;;;8.00;75.80;;;;;;6188666;23;19899;-83
2020/12/23 09:09:18;;;;;;;19.10;9.40;;;8.00;75.60;;;;;;6188571;23;20036;-83
2020/12/23 09:11:47;;;;;;;18.53;9.93;;;8.00;75.70;;;;;;6215196;23;20071;-83
2020/12/23 09:14:37;;;;;;;14.77;8.47;;;8.00;75.70;;;;;;6186937;23;20079;-83
2020/12/23 09:17:14;;;;;;;14.90;9.80;;;8.00;75.60;;;;;;6187600;23;20001;-83
2020/12/23 09:19:53;;;;;;;19.33;9.83;;;8.00;75.80;;;;;;6214770;23;20300;-83
2020/12/23 09:22:38;;;;;;;13.57;9.50;;;8.10;75.80;;;;;;6187447;23;20529;-83
2020/12/23 09:25:21;;;;;;;17.03;10.83;;;8.10;75.80;;;;;;6187333;23;20015;-83
2020/12/23 09:27:49;;;;;;;19.30;13.63;;;8.10;75.90;;;;;;6187586;23;20099;-83
2020/12/23 09:30:36;;;;;;;20.40;13.10;;;8.10;75.80;;;;;;6188671;23;20077;-83
2020/12/23 09:33:02;;;;;;;21.10;12.60;;;8.10;75.90;;;;;;6187874;23;20050;-83
2020/12/23 09:35:30;;;;;;;15.17;10.07;;;8.20;75.80;;;;;;6188015;23;20008;-83
2020/12/23 09:38:10;;;;;;;15.47;10.20;;;8.20;76.40;;;;;;6215157;23;20004;-83
2020/12/23 09:40:39;;;;;;;19.87;11.07;;;8.30;75.80;;;;;;6188747;23;20016;-83
2020/12/23 09:43:09;;;;;;;19.83;10.10;;;8.30;75.80;;;;;;6188215;23;20894;-83
2020/12/23 09:45:35;;;;;;;13.20;8.20;;;8.40;75.80;;;;;;6188441;23;20392;-83
2020/12/23 09:48:01;;;;;;;15.93;7.23;;;8.40;75.90;;;;;;6187312;23;20050;-83
2020/12/23 09:50:27;;;;;;;10.80;6.37;;;8.50;75.80;;;;;;6187297;23;20000;-83
2020/12/23 09:52:52;;;;;;;14.60;5.50;;;8.50;75.40;;;;;;6186614;23;20058;-83
2020/12/23 09:55:18;;;;;;;23.47;7.13;;;8.50;75.50;;;;;;6187549;23;20001;-83
2020/12/23 09:57:44;;;;;;;21.17;7.63;;;8.50;75.20;;;;;;6162736;23;20004;-83
2020/12/23 10:00:10;;;;;;;15.90;6.43;;;8.50;75.30;;;;;;6187932;23;20031;-83
2020/12/23 10:02:36;;;;;;;17.00;6.27;;;8.60;75.40;;;;;;6186372;23;20009;-83
2020/12/23 10:05:02;;;;;;;14.30;6.43;;;8.60;75.30;;;;;;6187231;23;20038;-83
2020/12/23 10:07:28;;;;;;;10.73;6.37;;;8.60;75.20;;;;;;6187560;23;20007;-83
2020/12/23 10:09:54;;;;;;;15.80;6.97;;;8.60;75.10;;;;;;6186871;23;20004;-83
2020/12/23 10:12:22;;;;;;;15.80;5.93;;;8.60;75.20;;;;;;6186920;23;19997;-83
2020/12/23 10:14:49;;;;;;;11.27;6.37;;;8.60;75.20;;;;;;6187313;23;20015;-83
2020/12/23 10:17:15;;;;;;;11.33;6.17;;;8.60;75.30;;;;;;6186978;23;20072;-83
2020/12/23 10:19:41;;;;;;;13.20;5.80;;;8.70;75.30;;;;;;6185510;23;20039;-82
2020/12/23 10:22:07;;;;;;;13.20;6.27;;;8.70;75.30;;;;;;6213993;23;20005;-83
2020/12/23 10:24:32;;;;;;;11.60;7.17;;;8.80;75.30;;;;;;6187337;23;20012;-82
2020/12/23 10:26:58;;;;;;;13.93;7.50;;;8.80;75.20;;;;;;6186087;23;20027;-82
2020/12/23 10:29:24;;;;;;;12.10;7.83;;;8.80;75.10;;;;;;6186272;23;20011;-82
2020/12/23 10:31:50;;;;;;;15.83;7.50;;;9.00;75.20;;;;;;6187917;23;19996;-83
2020/12/23 10:34:15;;;;;;;15.90;7.70;;;9.10;75.00;;;;;;6187729;23;20009;-82
2020/12/23 10:36:42;;;;;;;12.40;6.13;;;9.20;74.80;;;;;;6187531;23;19997;-82
2020/12/23 10:39:08;;;;;;;18.33;8.67;;;9.30;74.60;;;;;;6187458;23;20015;-82
2020/12/23 10:41:33;;;;;;;13.97;9.07;;;9.40;74.20;;;;;;6216468;23;20008;-83
2020/12/23 10:43:59;;;;;;;18.33;9.57;;;9.50;74.20;;;;;;6189121;23;20044;-82
2020/12/23 10:46:24;;;;;;;17.57;10.13;;;9.50;74.10;;;;;;6188645;23;20008;-82
2020/12/23 10:48:51;;;;;;;19.27;9.50;;;9.60;74.00;;;;;;6189254;23;20420;-83
2020/12/23 10:51:17;;;;;;;13.37;6.90;;;9.70;73.90;;;;;;6188615;23;20031;-83
2020/12/23 10:53:42;;;;;;;13.20;6.63;;;9.70;73.80;;;;;;6188683;23;20001;-83
2020/12/23 10:56:09;;;;;;;16.23;8.33;;;9.70;73.60;;;;;;6187419;23;20195;-83
2020/12/23 10:58:35;;;;;;;20.40;10.50;;;9.70;73.60;;;;;;6189544;23;20031;-82
2020/12/23 11:01:07;;;;;;;14.23;8.60;;;9.70;73.40;;;;;;6189167;23;20008;-83
2020/12/23 11:03:33;;;;;;;12.70;6.97;;;9.70;73.40;;;;;;6188954;23;20009;-82
2020/12/23 11:05:59;;;;;;;13.97;7.27;;;9.70;73.40;;;;;;6190166;23;20242;-83
2020/12/23 11:08:25;;;;;;;11.53;6.37;;;9.80;73.40;;;;;;6189691;23;20016;-83
2020/12/23 11:10:52;;;;;;;9.87;6.00;;;9.80;73.40;;;;;;6216249;23;20041;-83
2020/12/23 11:13:18;;;;;;;12.20;7.63;;;9.90;73.40;;;;;;6189329;23;20007;-83
2020/12/23 11:15:43;;;;;;;10.83;6.40;;;9.90;73.30;;;;;;6190198;23;20009;-83
2020/12/23 11:18:09;;;;;;;11.57;5.97;;;9.90;73.20;;;;;;6190632;23;20009;-83
2020/12/23 11:20:35;;;;;;;12.03;6.53;;;9.90;73.10;;;;;;6191534;23;20024;-83
2020/12/23 11:23:00;;;;;;;9.53;6.73;;;10.00;73.00;;;;;;6190259;23;20083;-83
2020/12/23 11:25:27;;;;;;;10.30;6.93;;;10.00;73.40;;;;;;6190041;23;20004;-83
2020/12/23 11:27:53;;;;;;;9.47;6.80;;;10.00;72.90;;;;;;6189354;23;20075;-83
2020/12/23 11:30:18;;;;;;;8.67;6.17;;;10.20;73.00;;;;;;6215310;23;20008;-83
2020/12/23 11:32:44;;;;;;;9.33;6.17;;;10.30;72.90;;;;;;6190404;23;20075;-83
2020/12/23 11:35:10;;;;;;;9.33;5.83;;;10.40;72.60;;;;;;6190338;23;20555;-83
2020/12/23 11:37:36;;;;;;;10.03;6.27;;;10.60;72.50;;;;;;6189961;23;20032;-83
2020/12/23 11:40:02;;;;;;;8.37;5.70;;;10.70;72.40;;;;;;6191217;23;20059;-83
2020/12/23 11:42:28;;;;;;;11.67;6.13;;;10.80;72.10;;;;;;6217934;23;19997;-83
2020/12/23 11:44:53;;;;;;;11.63;6.93;;;10.90;71.90;;;;;;6190809;23;20450;-83
2020/12/23 11:47:19;;;;;;;10.23;6.63;;;10.90;71.90;;;;;;6191228;23;20305;-83
2020/12/23 11:49:46;;;;;;;10.90;6.80;;;11.00;71.70;;;;;;6190870;23;20005;-83
2020/12/23 11:52:11;;;;;;;11.93;7.27;;;11.10;71.70;;;;;;6187581;23;20000;-83
2020/12/23 11:54:37;;;;;;;14.97;8.13;;;11.10;71.60;;;;;;6190968;23;20553;-83
2020/12/23 11:57:04;;;;;;;12.20;7.97;;;11.20;71.50;;;;;;6191932;23;20004;-83
2020/12/23 11:59:30;;;;;;;9.80;6.50;;;11.20;71.30;;;;;;6216843;23;20015;-83
2020/12/23 12:01:56;;;;;;;8.57;6.20;;;11.20;71.10;;;;;;6191322;23;20388;-83
2020/12/23 12:04:21;;;;;;;9.83;5.83;;;11.20;71.00;;;;;;6191192;23;20024;-83
2020/12/23 12:06:53;;;;;;;16.03;6.63;;;11.20;70.70;;;;;;6191298;23;20012;-83
2020/12/23 12:09:19;;;;;;;9.13;6.20;;;11.10;70.70;;;;;;6190770;23;20012;-83
2020/12/23 12:11:44;;;;;;;13.30;6.20;;;11.10;70.80;;;;;;6215543;23;20503;-83
2020/12/23 12:14:10;;;;;;;10.20;6.47;;;11.10;70.70;;;;;;6190731;23;20092;-83
2020/12/23 12:16:36;;;;;;;13.10;6.80;;;11.10;70.80;;;;;;6190197;23;20036;-83
2020/12/23 12:19:01;;;;;;;9.17;6.10;;;11.10;70.80;;;;;;6191054;23;20062;-83
2020/12/23 12:21:28;;;;;;;11.13;7.40;;;11.10;70.60;;;;;;6191090;23;20032;-83
2020/12/23 12:23:54;;;;;;;11.23;7.00;;;11.00;70.70;;;;;;6190233;23;20004;-83
2020/12/23 12:26:28;;;;;;;12.60;7.83;;;11.00;70.70;;;;;;6190077;23;20008;-83
2020/12/23 12:28:53;;;;;;;11.37;8.67;;;11.00;70.50;;;;;;6188843;23;20027;-83
2020/12/23 12:31:19;;;;;;;10.10;6.43;;;10.90;70.60;;;;;;6189920;23;20088;-83
2020/12/23 12:33:47;;;;;;;11.67;6.77;;;10.90;70.60;;;;;;6188238;23;20015;-83
2020/12/23 12:36:13;;;;;;;9.87;6.20;;;10.90;70.60;;;;;;6189490;23;20000;-83
2020/12/23 12:38:38;;;;;;;9.27;6.20;;;10.90;70.40;;;;;;6190054;23;20090;-83
2020/12/23 12:41:04;;;;;;;13.17;6.80;;;10.90;70.50;;;;;;6191047;23;20012;-83
2020/12/23 12:43:30;;;;;;;14.07;8.90;;;10.90;70.40;;;;;;6189252;23;20498;-83
2020/12/23 12:45:55;;;;;;;19.73;10.50;;;10.90;70.50;;;;;;6190617;23;20020;-83
2020/12/23 12:48:21;;;;;;;12.10;7.77;;;10.90;70.60;;;;;;6190602;23;20062;-83
2020/12/23 12:50:47;;;;;;;14.90;8.40;;;10.90;70.60;;;;;;6191529;23;20005;-83
2020/12/23 12:53:13;;;;;;;18.57;11.23;;;10.90;70.70;;;;;;6215826;23;20000;-83